Oranmore, Ireland
Current Conditions -  °F | °C
As of 5:00 AM on Saturday 29 Nov 2014 (Local Time) from EINN Reporting Station
Haze Haze  
Wind Chill: 42°   Ceiling: Unl
Heat Index: 45°   Visibility: 1.5mi
Dew Point: 45°   Wind: 5mph
Humidity: 100%   Direction: 50°NE
Pressure: 29.74"   Gusts: NA
Location:  53.27°N, 8.93°W
Report Text: EINN 290500Z 05004KT 2500 BR FEW006 SCT015 07/07 Q1007 TEMPO 0400 BKN002
Loading
Personal Weather Stations






























Interactive Weather Map New forecast layout! Learn more

10-Day Weather Forecast

Advertisements
Track Severe Weather on mobile